Time;durP1;ratioP1;P1;durP2;ratioP2;P2;SDS_P1;SDS_P2;PMS_P1;PMS_P2;Temp;Humidity;BMP_temperature;BMP_pressure;BME280_temperature;BME280_humidity;BME280_pressure;Samples;Min_cycle;Max_cycle;Signal;HPM_P1;HPM_P2
2023/08/24 00:00:47;;;;;;;3.90;2.73;;;;;;;;;;5033555;28;20204;-49
2023/08/24 00:03:14;;;;;;;5.20;2.80;;;;;;;;;;5033191;28;20193;-50
2023/08/24 00:05:42;;;;;;;4.93;3.10;;;;;;;;;;5033559;28;20287;-51
2023/08/24 00:08:08;;;;;;;3.00;2.70;;;;;;;;;;5033419;28;20338;-51
2023/08/24 00:10:34;;;;;;;5.33;3.10;;;;;;;;;;5032934;28;20711;-51
2023/08/24 00:13:02;;;;;;;4.10;2.97;;;;;;;;;;5033167;28;20628;-50
2023/08/24 00:15:28;;;;;;;8.17;6.03;;;;;;;;;;5032773;28;20239;-51
2023/08/24 00:17:54;;;;;;;4.23;3.43;;;;;;;;;;5033197;28;20223;-49
2023/08/24 00:20:20;;;;;;;3.37;3.00;;;;;;;;;;5032874;28;20651;-50
2023/08/24 00:22:47;;;;;;;3.87;3.50;;;;;;;;;;5032875;28;20200;-51
2023/08/24 00:25:13;;;;;;;3.87;2.60;;;;;;;;;;5032831;28;20199;-51
2023/08/24 00:27:39;;;;;;;5.53;3.07;;;;;;;;;;5030927;28;20243;-48
2023/08/24 00:30:07;;;;;;;5.60;2.80;;;;;;;;;;5030889;28;20294;-51
2023/08/24 00:32:34;;;;;;;4.60;2.87;;;;;;;;;;5032584;28;20204;-50
2023/08/24 00:35:00;;;;;;;11.60;10.50;;;;;;;;;;5032149;28;20208;-49
2023/08/24 00:37:26;;;;;;;6.07;5.57;;;;;;;;;;5032407;28;20227;-50
2023/08/24 00:39:52;;;;;;;4.60;3.50;;;;;;;;;;5032856;28;20226;-49
2023/08/24 00:42:18;;;;;;;4.37;3.37;;;;;;;;;;5032531;28;20307;-49
2023/08/24 00:44:44;;;;;;;3.17;2.87;;;;;;;;;;5032324;28;20236;-49
2023/08/24 00:47:12;;;;;;;3.20;2.90;;;;;;;;;;5032543;28;20199;-49
2023/08/24 00:49:38;;;;;;;6.77;2.87;;;;;;;;;;5032602;28;20266;-49
2023/08/24 00:52:04;;;;;;;3.20;2.90;;;;;;;;;;5032414;28;20212;-49
2023/08/24 00:54:30;;;;;;;7.43;3.87;;;;;;;;;;5032431;28;20206;-49
2023/08/24 00:56:56;;;;;;;4.70;3.73;;;;;;;;;;5032382;28;20705;-50
2023/08/24 00:59:23;;;;;;;3.47;3.17;;;;;;;;;;5032364;28;20235;-50
2023/08/24 01:01:49;;;;;;;3.23;2.93;;;;;;;;;;5032298;28;20829;-50
2023/08/24 01:04:16;;;;;;;4.50;3.30;;;;;;;;;;5032240;28;20571;-50
2023/08/24 01:06:42;;;;;;;3.57;3.27;;;;;;;;;;5032230;28;20211;-49
2023/08/24 01:09:09;;;;;;;4.53;2.93;;;;;;;;;;5032257;28;20232;-49
2023/08/24 01:11:42;;;;;;;3.83;3.10;;;;;;;;;;5031974;28;20203;-50
2023/08/24 01:14:14;;;;;;;3.57;3.27;;;;;;;;;;5032152;28;20275;-50
2023/08/24 01:16:42;;;;;;;4.03;3.20;;;;;;;;;;5032316;28;20211;-49
2023/08/24 01:19:12;;;;;;;3.53;3.23;;;;;;;;;;5032137;28;20266;-49
2023/08/24 01:21:39;;;;;;;3.53;2.63;;;;;;;;;;5031755;28;20208;-49
2023/08/24 01:24:11;;;;;;;4.43;3.10;;;;;;;;;;5031882;28;20215;-49
2023/08/24 01:26:38;;;;;;;3.73;2.80;;;;;;;;;;5031764;28;20193;-49
2023/08/24 01:29:05;;;;;;;5.00;3.17;;;;;;;;;;5031772;28;20233;-49
2023/08/24 01:31:31;;;;;;;4.17;2.77;;;;;;;;;;5031616;28;20190;-49
2023/08/24 01:33:57;;;;;;;3.33;2.77;;;;;;;;;;5031802;28;20244;-49
2023/08/24 01:36:24;;;;;;;5.07;2.77;;;;;;;;;;5031483;28;20201;-49
2023/08/24 01:38:54;;;;;;;3.83;2.90;;;;;;;;;;5031681;28;20205;-50
2023/08/24 01:41:23;;;;;;;3.83;3.07;;;;;;;;;;5031432;28;20287;-49
2023/08/24 01:43:53;;;;;;;4.97;3.10;;;;;;;;;;5031197;28;20230;-49
2023/08/24 01:46:20;;;;;;;4.90;3.13;;;;;;;;;;5030874;28;20671;-49
2023/08/24 01:48:46;;;;;;;3.23;2.93;;;;;;;;;;5030620;28;20218;-49
2023/08/24 01:51:12;;;;;;;5.20;3.23;;;;;;;;;;5031333;28;20195;-49
2023/08/24 01:53:40;;;;;;;7.23;3.17;;;;;;;;;;5031187;28;20208;-49
2023/08/24 01:56:09;;;;;;;10.73;9.73;;;;;;;;;;5031262;28;20207;-49
2023/08/24 01:58:35;;;;;;;3.67;3.10;;;;;;;;;;5031006;28;20200;-49
2023/08/24 02:01:02;;;;;;;3.27;2.97;;;;;;;;;;5031199;28;20188;-49
2023/08/24 02:03:28;;;;;;;4.43;3.10;;;;;;;;;;5030884;28;20261;-49
2023/08/24 02:05:54;;;;;;;3.23;2.87;;;;;;;;;;5031153;28;20195;-49
2023/08/24 02:08:20;;;;;;;3.53;2.97;;;;;;;;;;5030744;28;20204;-49
2023/08/24 02:10:46;;;;;;;3.23;2.90;;;;;;;;;;5031075;28;20240;-50
2023/08/24 02:13:12;;;;;;;3.30;3.00;;;;;;;;;;5031019;28;20199;-50
2023/08/24 02:15:42;;;;;;;8.37;7.63;;;;;;;;;;5030853;28;20208;-50
2023/08/24 02:18:09;;;;;;;3.27;2.97;;;;;;;;;;5030910;28;20227;-50
2023/08/24 02:20:35;;;;;;;3.90;2.77;;;;;;;;;;5030685;28;20275;-50
2023/08/24 02:23:01;;;;;;;4.40;3.33;;;;;;;;;;5030621;28;20186;-49
2023/08/24 02:25:28;;;;;;;3.87;3.27;;;;;;;;;;5030787;28;20202;-49
2023/08/24 02:27:54;;;;;;;3.97;3.40;;;;;;;;;;5030814;28;20261;-49
2023/08/24 02:30:20;;;;;;;4.97;3.20;;;;;;;;;;5030614;28;20231;-49
2023/08/24 02:32:46;;;;;;;3.47;3.13;;;;;;;;;;5030561;28;20646;-49
2023/08/24 02:35:30;;;;;;;4.53;3.40;;;;;;;;;;5030677;28;20202;-49
2023/08/24 02:37:58;;;;;;;8.00;7.30;;;;;;;;;;5029125;28;20301;-49
2023/08/24 02:40:24;;;;;;;7.10;4.23;;;;;;;;;;5030862;28;20193;-49
2023/08/24 02:42:50;;;;;;;3.73;3.43;;;;;;;;;;5030638;28;20558;-49
2023/08/24 02:45:16;;;;;;;4.30;3.90;;;;;;;;;;5030597;28;20240;-50
2023/08/24 02:47:42;;;;;;;3.17;2.90;;;;;;;;;;5030743;28;20657;-49
2023/08/24 02:50:08;;;;;;;3.97;3.67;;;;;;;;;;5030805;28;20236;-50
2023/08/24 02:52:34;;;;;;;3.00;2.80;;;;;;;;;;5030550;28;20233;-50
2023/08/24 02:55:02;;;;;;;3.47;2.77;;;;;;;;;;5030739;28;20242;-50
2023/08/24 02:57:28;;;;;;;3.30;3.00;;;;;;;;;;5030648;28;20193;-50
2023/08/24 02:59:54;;;;;;;2.87;2.60;;;;;;;;;;5034408;28;20188;-48
2023/08/24 03:02:20;;;;;;;3.10;2.80;;;;;;;;;;5034683;28;20192;-49
2023/08/24 03:04:46;;;;;;;3.57;3.10;;;;;;;;;;5033958;28;20217;-50
2023/08/24 03:07:12;;;;;;;3.30;3.00;;;;;;;;;;5034492;28;20252;-50
2023/08/24 03:09:38;;;;;;;2.90;2.63;;;;;;;;;;5034665;28;20274;-49
2023/08/24 03:12:06;;;;;;;3.50;3.00;;;;;;;;;;5034652;28;20193;-50
2023/08/24 03:14:32;;;;;;;4.27;2.57;;;;;;;;;;5034559;28;20201;-50
2023/08/24 03:16:58;;;;;;;2.97;2.77;;;;;;;;;;5034438;28;20697;-50
2023/08/24 03:19:24;;;;;;;4.13;2.70;;;;;;;;;;5034546;28;20284;-50
2023/08/24 03:21:50;;;;;;;5.40;3.17;;;;;;;;;;5034291;28;20194;-50
2023/08/24 03:24:16;;;;;;;3.93;3.30;;;;;;;;;;5034329;28;20579;-50
2023/08/24 03:26:42;;;;;;;3.00;2.73;;;;;;;;;;5034344;28;20296;-51
2023/08/24 03:29:10;;;;;;;3.80;3.00;;;;;;;;;;5034318;28;20202;-50
2023/08/24 03:31:36;;;;;;;4.80;4.40;;;;;;;;;;5034119;28;20248;-50
2023/08/24 03:34:03;;;;;;;3.83;3.40;;;;;;;;;;5034192;28;20458;-51
2023/08/24 03:36:30;;;;;;;3.90;3.17;;;;;;;;;;5034037;28;20272;-50
2023/08/24 03:38:56;;;;;;;3.97;3.10;;;;;;;;;;5034189;28;20203;-50
2023/08/24 03:41:22;;;;;;;3.50;2.90;;;;;;;;;;5034116;28;20204;-50
2023/08/24 03:43:48;;;;;;;3.50;3.20;;;;;;;;;;5033775;28;20214;-50
2023/08/24 03:46:15;;;;;;;3.60;3.30;;;;;;;;;;5034073;28;20216;-50
2023/08/24 03:48:41;;;;;;;6.93;3.67;;;;;;;;;;5033832;28;20258;-50
2023/08/24 03:51:07;;;;;;;4.83;3.57;;;;;;;;;;5033850;28;20232;-50
2023/08/24 03:53:33;;;;;;;5.10;4.60;;;;;;;;;;5033633;28;20304;-50
2023/08/24 03:55:59;;;;;;;5.00;4.10;;;;;;;;;;5033747;28;20293;-50
2023/08/24 03:58:25;;;;;;;4.37;3.70;;;;;;;;;;5033761;28;20280;-50
2023/08/24 04:00:51;;;;;;;4.30;3.90;;;;;;;;;;5033639;28;20637;-50
2023/08/24 04:03:19;;;;;;;4.03;3.10;;;;;;;;;;5033599;28;20224;-50
2023/08/24 04:05:45;;;;;;;3.53;3.23;;;;;;;;;;5033391;28;20206;-50
2023/08/24 04:08:11;;;;;;;3.90;3.50;;;;;;;;;;5033729;28;20197;-50
2023/08/24 04:10:37;;;;;;;5.40;3.30;;;;;;;;;;5032224;28;20235;-50
2023/08/24 04:13:04;;;;;;;4.00;3.60;;;;;;;;;;5033355;28;20738;-50
2023/08/24 04:15:30;;;;;;;4.60;3.90;;;;;;;;;;5033232;28;20197;-50
2023/08/24 04:17:56;;;;;;;4.67;3.67;;;;;;;;;;5033439;28;20251;-50
2023/08/24 04:20:24;;;;;;;3.97;3.40;;;;;;;;;;5032949;28;20194;-50
2023/08/24 04:22:50;;;;;;;3.97;3.40;;;;;;;;;;5033147;28;20279;-50
2023/08/24 04:25:16;;;;;;;4.87;3.57;;;;;;;;;;5033117;28;20200;-50
2023/08/24 04:27:42;;;;;;;3.80;3.50;;;;;;;;;;5033236;28;20236;-50
2023/08/24 04:30:11;;;;;;;5.97;4.17;;;;;;;;;;5033223;28;20352;-50
2023/08/24 04:32:37;;;;;;;5.63;3.37;;;;;;;;;;5033109;28;20308;-49
2023/08/24 04:35:04;;;;;;;4.57;3.77;;;;;;;;;;5033057;28;20197;-51
2023/08/24 04:37:31;;;;;;;4.20;3.70;;;;;;;;;;5032885;28;20223;-51
2023/08/24 04:39:57;;;;;;;4.00;3.60;;;;;;;;;;5032933;28;20197;-51
2023/08/24 04:42:24;;;;;;;4.80;3.53;;;;;;;;;;5032883;28;20782;-50
2023/08/24 04:44:51;;;;;;;5.20;3.90;;;;;;;;;;5032610;28;20245;-51
2023/08/24 04:47:17;;;;;;;4.33;3.90;;;;;;;;;;5032732;28;20292;-51
2023/08/24 04:49:43;;;;;;;6.70;3.57;;;;;;;;;;5032634;28;20295;-50
2023/08/24 04:52:09;;;;;;;6.63;4.30;;;;;;;;;;5032678;28;20683;-51
2023/08/24 04:54:36;;;;;;;6.53;4.10;;;;;;;;;;5032451;28;20188;-50
2023/08/24 04:57:02;;;;;;;6.40;4.60;;;;;;;;;;5032689;28;20228;-50
2023/08/24 04:59:28;;;;;;;5.27;3.60;;;;;;;;;;5032646;28;20225;-50
2023/08/24 05:01:54;;;;;;;4.43;4.03;;;;;;;;;;5032607;28;20641;-52
2023/08/24 05:04:20;;;;;;;4.43;4.03;;;;;;;;;;5032304;28;20198;-50
2023/08/24 05:06:46;;;;;;;4.93;4.17;;;;;;;;;;5032319;28;20291;-51
2023/08/24 05:09:12;;;;;;;5.00;3.97;;;;;;;;;;5032301;28;20281;-50
2023/08/24 05:11:40;;;;;;;4.30;3.90;;;;;;;;;;5032128;28;20312;-50
2023/08/24 05:14:06;;;;;;;6.60;4.33;;;;;;;;;;5032095;28;20201;-51
2023/08/24 05:16:32;;;;;;;4.80;4.40;;;;;;;;;;5032053;28;20291;-52
2023/08/24 05:18:58;;;;;;;7.10;5.53;;;;;;;;;;5032093;28;20291;-51
2023/08/24 05:21:24;;;;;;;6.50;4.80;;;;;;;;;;5032307;28;20548;-51
2023/08/24 05:23:50;;;;;;;5.70;5.20;;;;;;;;;;5032034;28;20196;-50
2023/08/24 05:26:22;;;;;;;6.33;4.77;;;;;;;;;;5031727;28;20486;-50
2023/08/24 05:28:49;;;;;;;6.00;4.47;;;;;;;;;;5031865;28;20233;-51
2023/08/24 05:31:15;;;;;;;6.57;5.57;;;;;;;;;;5031769;28;20254;-50
2023/08/24 05:33:41;;;;;;;5.40;4.90;;;;;;;;;;5031567;28;20196;-48
2023/08/24 05:36:07;;;;;;;5.57;5.13;;;;;;;;;;5031770;28;20733;-51
2023/08/24 05:38:33;;;;;;;6.50;5.73;;;;;;;;;;5031609;28;20207;-51
2023/08/24 05:40:59;;;;;;;7.20;6.00;;;;;;;;;;5031200;28;20245;-50
2023/08/24 05:43:25;;;;;;;6.40;5.30;;;;;;;;;;5031512;28;20212;-50
2023/08/24 05:45:53;;;;;;;6.73;5.53;;;;;;;;;;5031371;28;20789;-50
2023/08/24 05:48:19;;;;;;;5.90;5.40;;;;;;;;;;5031554;28;20263;-50
2023/08/24 05:50:45;;;;;;;5.93;5.43;;;;;;;;;;5031274;28;20694;-51
2023/08/24 05:53:11;;;;;;;8.57;6.07;;;;;;;;;;5031740;28;20207;-50
2023/08/24 05:55:38;;;;;;;7.07;5.90;;;;;;;;;;5031574;28;20209;-51
2023/08/24 05:58:04;;;;;;;8.70;6.60;;;;;;;;;;5031332;28;20664;-51
2023/08/24 06:00:30;;;;;;;7.40;5.90;;;;;;;;;;5031220;28;20723;-51
2023/08/24 06:02:57;;;;;;;6.53;5.93;;;;;;;;;;5031742;28;20214;-51
2023/08/24 06:05:23;;;;;;;7.53;5.90;;;;;;;;;;5031434;28;20194;-50
2023/08/24 06:07:49;;;;;;;9.33;6.10;;;;;;;;;;5031263;28;20209;-50
2023/08/24 06:10:15;;;;;;;6.87;6.17;;;;;;;;;;5031158;28;20237;-50
2023/08/24 06:12:41;;;;;;;5.47;4.97;;;;;;;;;;5031235;28;20203;-50
2023/08/24 06:15:10;;;;;;;6.43;5.77;;;;;;;;;;5031154;28;20608;-50
2023/08/24 06:17:36;;;;;;;9.10;7.23;;;;;;;;;;5030891;28;20689;-50
2023/08/24 06:20:03;;;;;;;7.17;6.10;;;;;;;;;;5031106;28;20207;-49
2023/08/24 06:22:29;;;;;;;6.97;6.27;;;;;;;;;;5030917;28;20274;-53
2023/08/24 06:24:59;;;;;;;8.33;7.50;;;;;;;;;;5031213;28;20261;-51
2023/08/24 06:27:25;;;;;;;10.40;8.20;;;;;;;;;;5031075;28;20200;-51
2023/08/24 06:29:51;;;;;;;10.23;8.23;;;;;;;;;;5031041;28;20227;-51
2023/08/24 06:32:17;;;;;;;13.57;8.50;;;;;;;;;;5030746;28;20545;-51
2023/08/24 06:34:43;;;;;;;9.10;8.30;;;;;;;;;;5030178;28;20203;-51
2023/08/24 06:37:11;;;;;;;9.60;8.60;;;;;;;;;;5030947;28;20200;-52
2023/08/24 06:39:37;;;;;;;9.60;8.60;;;;;;;;;;5030750;28;20251;-51
2023/08/24 06:42:03;;;;;;;10.53;9.33;;;;;;;;;;5030781;28;20216;-51
2023/08/24 06:44:29;;;;;;;10.03;8.07;;;;;;;;;;5030502;28;20247;-51
2023/08/24 06:46:55;;;;;;;9.30;7.50;;;;;;;;;;5030756;28;20620;-51
2023/08/24 06:49:21;;;;;;;8.00;7.20;;;;;;;;;;5030602;28;20284;-51
2023/08/24 06:51:47;;;;;;;7.57;6.87;;;;;;;;;;5030454;28;20275;-51
2023/08/24 06:54:15;;;;;;;7.13;6.33;;;;;;;;;;5030523;28;20252;-51
2023/08/24 06:56:42;;;;;;;9.27;6.80;;;;;;;;;;5030641;28;20205;-51
2023/08/24 06:59:09;;;;;;;7.17;6.47;;;;;;;;;;5030831;28;20222;-51
2023/08/24 07:01:35;;;;;;;6.60;5.57;;;;;;;;;;5030429;28;20197;-51
2023/08/24 07:04:01;;;;;;;6.70;5.67;;;;;;;;;;5030529;28;20196;-51
2023/08/24 07:06:27;;;;;;;9.83;5.10;;;;;;;;;;5030460;28;20201;-51
2023/08/24 07:08:53;;;;;;;7.80;5.30;;;;;;;;;;5030742;28;20254;-51
2023/08/24 07:11:21;;;;;;;5.23;4.40;;;;;;;;;;5030183;28;20221;-51
2023/08/24 07:13:48;;;;;;;5.33;3.77;;;;;;;;;;5030273;28;20196;-51
2023/08/24 07:16:14;;;;;;;5.93;4.10;;;;;;;;;;5030443;28;20200;-51
2023/08/24 07:18:40;;;;;;;5.23;3.63;;;;;;;;;;5030450;28;20240;-51
2023/08/24 07:21:06;;;;;;;4.90;3.20;;;;;;;;;;5030254;28;20252;-51
2023/08/24 07:23:32;;;;;;;6.77;4.47;;;;;;;;;;5030113;28;20621;-50
2023/08/24 07:25:58;;;;;;;6.53;4.30;;;;;;;;;;5030468;28;20215;-50
2023/08/24 07:28:26;;;;;;;6.30;3.50;;;;;;;;;;5030486;28;20193;-51
2023/08/24 07:30:55;;;;;;;5.37;2.90;;;;;;;;;;5030315;28;20695;-51
2023/08/24 07:33:21;;;;;;;2.87;2.40;;;;;;;;;;5030259;28;20728;-51
2023/08/24 07:35:47;;;;;;;4.50;2.60;;;;;;;;;;5030113;28;20204;-51
2023/08/24 07:38:13;;;;;;;4.30;2.63;;;;;;;;;;5030089;28;20595;-50
2023/08/24 07:40:39;;;;;;;2.67;2.30;;;;;;;;;;5030209;28;20656;-51
2023/08/24 07:43:05;;;;;;;3.07;2.57;;;;;;;;;;5030161;28;20214;-51
2023/08/24 07:45:33;;;;;;;4.47;2.20;;;;;;;;;;5032547;28;20243;-51
2023/08/24 07:47:59;;;;;;;4.20;2.40;;;;;;;;;;5033910;28;20267;-50
2023/08/24 07:50:25;;;;;;;3.07;2.37;;;;;;;;;;5033918;28;20323;-51
2023/08/24 07:52:51;;;;;;;3.23;2.20;;;;;;;;;;5033729;28;20197;-51
2023/08/24 07:55:17;;;;;;;2.60;2.13;;;;;;;;;;5033825;28;20198;-51
2023/08/24 07:57:43;;;;;;;3.00;2.23;;;;;;;;;;5033690;28;20195;-50
2023/08/24 08:00:10;;;;;;;4.97;2.57;;;;;;;;;;5033985;28;20193;-50
2023/08/24 08:02:38;;;;;;;4.60;2.63;;;;;;;;;;5033660;28;20205;-50
2023/08/24 08:05:05;;;;;;;2.60;2.40;;;;;;;;;;5033563;28;20233;-51
2023/08/24 08:07:31;;;;;;;4.27;2.20;;;;;;;;;;5033600;28;20285;-50
2023/08/24 08:09:57;;;;;;;3.70;2.50;;;;;;;;;;5033443;28;20226;-51
2023/08/24 08:12:23;;;;;;;4.17;2.33;;;;;;;;;;5033448;28;20203;-51
2023/08/24 08:14:49;;;;;;;4.10;2.40;;;;;;;;;;5033304;28;20193;-51
2023/08/24 08:17:15;;;;;;;3.07;2.47;;;;;;;;;;5033167;28;20207;-50
2023/08/24 08:19:43;;;;;;;4.87;2.47;;;;;;;;;;5033290;28;20202;-50
2023/08/24 08:22:09;;;;;;;4.00;2.80;;;;;;;;;;5033493;28;20253;-50
2023/08/24 08:24:35;;;;;;;3.13;2.57;;;;;;;;;;5033012;28;20198;-51
2023/08/24 08:27:01;;;;;;;3.97;2.30;;;;;;;;;;5033144;28;20204;-49
2023/08/24 08:29:27;;;;;;;4.00;2.40;;;;;;;;;;5033042;28;20194;-50
2023/08/24 08:31:53;;;;;;;3.40;2.50;;;;;;;;;;5033115;28;20561;-51
2023/08/24 08:34:19;;;;;;;3.47;2.10;;;;;;;;;;5033029;28;20618;-51
2023/08/24 08:36:46;;;;;;;5.00;2.77;;;;;;;;;;5032763;28;20748;-51
2023/08/24 08:39:13;;;;;;;6.13;2.80;;;;;;;;;;5033111;28;20688;-51
2023/08/24 08:41:42;;;;;;;2.90;2.57;;;;;;;;;;5032944;28;20211;-52
2023/08/24 08:44:09;;;;;;;5.03;2.30;;;;;;;;;;5032734;28;20236;-51
2023/08/24 08:46:36;;;;;;;3.00;2.23;;;;;;;;;;5032702;28;20204;-50
2023/08/24 08:49:02;;;;;;;4.77;2.30;;;;;;;;;;5032680;28;20208;-49
2023/08/24 08:51:29;;;;;;;4.87;2.60;;;;;;;;;;5032416;28;20228;-51
2023/08/24 08:53:56;;;;;;;2.90;2.40;;;;;;;;;;5032600;28;20567;-48
2023/08/24 08:56:22;;;;;;;4.20;2.70;;;;;;;;;;5032033;28;20205;-49
2023/08/24 08:58:48;;;;;;;4.67;2.40;;;;;;;;;;5032423;28;20196;-53
2023/08/24 09:01:15;;;;;;;3.77;2.10;;;;;;;;;;5032512;28;20243;-53
2023/08/24 09:03:41;;;;;;;4.17;2.47;;;;;;;;;;5032610;28;20217;-52
2023/08/24 09:06:07;;;;;;;2.33;2.13;;;;;;;;;;5032569;28;20208;-51
2023/08/24 09:08:34;;;;;;;3.27;1.97;;;;;;;;;;5032373;28;20292;-51
2023/08/24 09:11:02;;;;;;;4.97;2.00;;;;;;;;;;5032206;28;20233;-50
2023/08/24 09:13:29;;;;;;;4.63;2.40;;;;;;;;;;5032111;28;20239;-51
2023/08/24 09:16:03;;;;;;;5.77;2.60;;;;;;;;;;5032322;28;20199;-51
2023/08/24 09:18:34;;;;;;;3.93;2.43;;;;;;;;;;5032001;28;20202;-51
2023/08/24 09:21:00;;;;;;;4.00;2.50;;;;;;;;;;5032064;28;20200;-52
2023/08/24 09:23:26;;;;;;;4.73;2.33;;;;;;;;;;5032247;28;20214;-52
2023/08/24 09:25:53;;;;;;;2.87;1.93;;;;;;;;;;5032038;28;20199;-52
2023/08/24 09:28:24;;;;;;;7.73;2.20;;;;;;;;;;5031937;28;20203;-52
2023/08/24 09:30:54;;;;;;;2.63;1.90;;;;;;;;;;5031726;28;20601;-51
2023/08/24 09:33:21;;;;;;;4.77;2.17;;;;;;;;;;5031873;28;20208;-52
2023/08/24 09:35:52;;;;;;;2.60;2.07;;;;;;;;;;5031720;28;20617;-51
2023/08/24 09:38:19;;;;;;;5.07;2.40;;;;;;;;;;5031745;28;20204;-51
2023/08/24 09:40:47;;;;;;;5.33;2.10;;;;;;;;;;5031764;28;20189;-51
2023/08/24 09:43:13;;;;;;;6.53;2.00;;;;;;;;;;5031522;28;20227;-51
2023/08/24 09:45:48;;;;;;;3.03;2.10;;;;;;;;;;5031533;28;20241;-51
2023/08/24 09:48:14;;;;;;;3.53;1.80;;;;;;;;;;5031615;28;20671;-51
2023/08/24 09:50:40;;;;;;;4.47;1.77;;;;;;;;;;5031052;28;20257;-51
2023/08/24 09:53:07;;;;;;;4.40;2.10;;;;;;;;;;5031730;28;20244;-51
2023/08/24 09:55:36;;;;;;;2.10;1.90;;;;;;;;;;5031458;28;20785;-51
2023/08/24 09:58:03;;;;;;;2.47;1.90;;;;;;;;;;5031627;28;20227;-51
2023/08/24 10:00:30;;;;;;;4.30;2.40;;;;;;;;;;5031410;28;20199;-52
2023/08/24 10:02:59;;;;;;;3.47;2.00;;;;;;;;;;5031660;28;20251;-51
2023/08/24 10:05:25;;;;;;;4.27;2.00;;;;;;;;;;5031433;28;20205;-51
2023/08/24 10:07:53;;;;;;;4.57;2.10;;;;;;;;;;5030301;28;20198;-52
2023/08/24 10:10:20;;;;;;;5.10;2.13;;;;;;;;;;5031068;28;20706;-51
2023/08/24 10:12:48;;;;;;;4.00;2.13;;;;;;;;;;5031066;28;20207;-51
2023/08/24 10:15:15;;;;;;;4.17;2.27;;;;;;;;;;5029225;28;20200;-52
2023/08/24 10:17:41;;;;;;;4.07;2.10;;;;;;;;;;5030227;28;20193;-52
2023/08/24 10:20:10;;;;;;;2.47;1.90;;;;;;;;;;5030905;28;20254;-51
2023/08/24 10:22:37;;;;;;;2.70;1.90;;;;;;;;;;5030526;28;20207;-51
2023/08/24 10:25:03;;;;;;;2.83;1.70;;;;;;;;;;5030860;28;20254;-51
2023/08/24 10:27:32;;;;;;;3.83;1.90;;;;;;;;;;5030483;28;20199;-51
2023/08/24 10:29:58;;;;;;;2.20;1.63;;;;;;;;;;5030541;28;20662;-51
2023/08/24 10:32:25;;;;;;;4.83;2.20;;;;;;;;;;5031194;28;20262;-51
2023/08/24 10:34:52;;;;;;;2.80;1.77;;;;;;;;;;5030914;28;20196;-51
2023/08/24 10:37:25;;;;;;;5.50;2.07;;;;;;;;;;5022895;28;20225;-51
2023/08/24 10:39:51;;;;;;;3.67;2.60;;;;;;;;;;5030865;28;20204;-51
2023/08/24 10:42:17;;;;;;;4.37;2.10;;;;;;;;;;5030574;28;20784;-51
2023/08/24 10:44:45;;;;;;;3.47;2.00;;;;;;;;;;5030155;28;20737;-51
2023/08/24 10:47:12;;;;;;;2.53;2.10;;;;;;;;;;5030833;28;20199;-51
2023/08/24 10:49:38;;;;;;;2.77;1.90;;;;;;;;;;5030631;28;20205;-51
2023/08/24 10:52:18;;;;;;;2.47;2.27;;;;;;;;;;5030549;28;20225;-50
2023/08/24 10:54:47;;;;;;;5.60;2.10;;;;;;;;;;5030533;28;20211;-51
2023/08/24 10:57:19;;;;;;;4.60;2.20;;;;;;;;;;5030797;28;20208;-51
2023/08/24 10:59:45;;;;;;;3.57;2.27;;;;;;;;;;5030642;28;20204;-51
2023/08/24 11:02:19;;;;;;;5.13;2.20;;;;;;;;;;5030764;28;20200;-51
2023/08/24 11:05:00;;;;;;;5.10;2.50;;;;;;;;;;5030379;28;20627;-51
2023/08/24 11:07:26;;;;;;;3.83;2.30;;;;;;;;;;5029835;28;20203;-51
2023/08/24 11:09:53;;;;;;;6.07;2.60;;;;;;;;;;5028103;28;20228;-51
2023/08/24 11:12:19;;;;;;;4.93;2.40;;;;;;;;;;5030010;28;20242;-52
2023/08/24 11:14:51;;;;;;;3.63;2.20;;;;;;;;;;5029826;28;20228;-51
2023/08/24 11:17:20;;;;;;;4.17;2.47;;;;;;;;;;5030063;28;20438;-51
2023/08/24 11:19:50;;;;;;;3.63;2.30;;;;;;;;;;5031353;28;20207;-51
2023/08/24 11:22:16;;;;;;;4.90;2.70;;;;;;;;;;5034116;28;20707;-52
2023/08/24 11:24:42;;;;;;;4.43;2.60;;;;;;;;;;5033872;28;20715;-51
2023/08/24 11:27:10;;;;;;;5.40;2.40;;;;;;;;;;5034318;28;20197;-52
2023/08/24 11:29:36;;;;;;;5.27;2.70;;;;;;;;;;5033671;28;20289;-51
2023/08/24 11:32:02;;;;;;;4.37;2.23;;;;;;;;;;5031744;28;20261;-52
2023/08/24 11:34:29;;;;;;;5.50;2.63;;;;;;;;;;5033146;28;20536;-52
2023/08/24 11:36:55;;;;;;;5.33;3.00;;;;;;;;;;5027941;28;20232;-50
2023/08/24 11:39:22;;;;;;;5.90;2.87;;;;;;;;;;5032871;28;20201;-51
2023/08/24 11:41:58;;;;;;;3.57;2.47;;;;;;;;;;5033860;28;20204;-52
2023/08/24 11:44:25;;;;;;;4.50;2.50;;;;;;;;;;5033891;28;20235;-51
2023/08/24 11:46:52;;;;;;;4.70;2.30;;;;;;;;;;5033359;28;20203;-51
2023/08/24 11:49:18;;;;;;;4.10;2.17;;;;;;;;;;5033645;28;20204;-51
2023/08/24 11:51:44;;;;;;;2.60;2.40;;;;;;;;;;5033557;28;20259;-51
2023/08/24 11:54:10;;;;;;;4.30;2.33;;;;;;;;;;5034085;28;20198;-51
2023/08/24 11:56:40;;;;;;;5.27;2.60;;;;;;;;;;5033745;28;20220;-51
2023/08/24 11:59:11;;;;;;;6.13;3.03;;;;;;;;;;5032938;28;20219;-51
2023/08/24 12:01:39;;;;;;;5.13;3.13;;;;;;;;;;5029405;28;20206;-51
2023/08/24 12:04:05;;;;;;;5.77;2.90;;;;;;;;;;5033204;28;20232;-51
2023/08/24 12:06:31;;;;;;;3.40;2.27;;;;;;;;;;5033354;28;20568;-52
2023/08/24 12:08:57;;;;;;;5.80;2.50;;;;;;;;;;5033473;28;20225;-51
2023/08/24 12:11:26;;;;;;;6.93;2.70;;;;;;;;;;5033414;28;20327;-51
2023/08/24 12:13:53;;;;;;;4.13;2.60;;;;;;;;;;5030960;28;20200;-51
2023/08/24 12:16:20;;;;;;;5.57;2.90;;;;;;;;;;5032659;28;20273;-51
2023/08/24 12:18:48;;;;;;;4.13;2.67;;;;;;;;;;5032703;28;20388;-51
2023/08/24 12:21:15;;;;;;;4.17;2.83;;;;;;;;;;5032691;28;20208;-51
2023/08/24 12:23:41;;;;;;;4.87;3.00;;;;;;;;;;5032880;28;20210;-51
2023/08/24 12:26:07;;;;;;;3.10;2.60;;;;;;;;;;5032794;28;20601;-51
2023/08/24 12:28:34;;;;;;;3.23;2.10;;;;;;;;;;5032681;28;20704;-51
2023/08/24 12:31:03;;;;;;;2.97;2.60;;;;;;;;;;5031845;28;20233;-51
2023/08/24 12:33:29;;;;;;;3.07;2.37;;;;;;;;;;5032594;28;20228;-51
2023/08/24 12:35:58;;;;;;;7.50;2.70;;;;;;;;;;5032824;28;20207;-51
2023/08/24 12:38:25;;;;;;;3.47;2.30;;;;;;;;;;5032781;28;20291;-51
2023/08/24 12:40:51;;;;;;;2.70;2.43;;;;;;;;;;5032149;28;20203;-51
2023/08/24 12:43:17;;;;;;;3.70;2.13;;;;;;;;;;5032536;28;20228;-51
2023/08/24 12:45:43;;;;;;;2.50;2.30;;;;;;;;;;5032403;28;20613;-51
2023/08/24 12:48:09;;;;;;;3.30;2.10;;;;;;;;;;5032479;28;20204;-51
2023/08/24 12:50:36;;;;;;;2.30;2.10;;;;;;;;;;5032070;28;20227;-51
2023/08/24 12:53:05;;;;;;;3.10;2.20;;;;;;;;;;5030281;28;20217;-52
2023/08/24 12:55:32;;;;;;;3.80;2.40;;;;;;;;;;5031985;28;20216;-51
2023/08/24 12:57:58;;;;;;;2.90;2.60;;;;;;;;;;5031698;28;20627;-51
2023/08/24 13:00:24;;;;;;;3.47;2.40;;;;;;;;;;5031791;28;20202;-51
2023/08/24 13:02:50;;;;;;;4.80;2.67;;;;;;;;;;5032051;28;20258;-51
2023/08/24 13:05:16;;;;;;;4.53;2.13;;;;;;;;;;5032077;28;20216;-51
2023/08/24 13:07:42;;;;;;;4.67;2.40;;;;;;;;;;5031842;28;20661;-51
2023/08/24 13:10:11;;;;;;;2.80;2.50;;;;;;;;;;5031877;28;20294;-51
2023/08/24 13:12:37;;;;;;;7.40;2.60;;;;;;;;;;5031934;28;20210;-51
2023/08/24 13:15:04;;;;;;;3.73;2.50;;;;;;;;;;5031855;28;20204;-51
2023/08/24 13:17:30;;;;;;;5.37;2.33;;;;;;;;;;5031741;28;20211;-51
2023/08/24 13:19:56;;;;;;;4.07;2.00;;;;;;;;;;5031709;28;20734;-51
2023/08/24 13:22:22;;;;;;;3.27;2.47;;;;;;;;;;5031824;28;20296;-51
2023/08/24 13:24:48;;;;;;;7.43;2.40;;;;;;;;;;5031533;28;20254;-51
2023/08/24 13:27:16;;;;;;;3.60;2.20;;;;;;;;;;5031736;28;20228;-51
2023/08/24 13:29:42;;;;;;;4.80;2.20;;;;;;;;;;5031690;28;20231;-51
2023/08/24 13:32:08;;;;;;;2.77;2.40;;;;;;;;;;5031613;28;20262;-51
2023/08/24 13:34:34;;;;;;;4.17;2.50;;;;;;;;;;5031599;28;20193;-51
2023/08/24 13:37:00;;;;;;;2.80;2.13;;;;;;;;;;5031263;28;20231;-51
2023/08/24 13:39:30;;;;;;;3.73;2.47;;;;;;;;;;5031852;28;20204;-51
2023/08/24 13:41:56;;;;;;;3.23;2.33;;;;;;;;;;5031362;28;20254;-51
2023/08/24 13:44:24;;;;;;;2.73;2.27;;;;;;;;;;5031623;28;20239;-51
2023/08/24 13:46:50;;;;;;;4.57;2.20;;;;;;;;;;5031271;28;20662;-51
2023/08/24 13:49:17;;;;;;;3.53;1.90;;;;;;;;;;5031444;28;20193;-51
2023/08/24 13:51:43;;;;;;;3.67;2.03;;;;;;;;;;5031168;28;20600;-51
2023/08/24 13:54:14;;;;;;;3.13;2.10;;;;;;;;;;5031685;28;20661;-51
2023/08/24 13:56:40;;;;;;;5.57;2.37;;;;;;;;;;5031321;28;20550;-52
2023/08/24 13:59:06;;;;;;;2.20;1.93;;;;;;;;;;5031394;28;20226;-51
2023/08/24 14:01:33;;;;;;;2.90;2.07;;;;;;;;;;5031314;28;20198;-52
2023/08/24 14:03:59;;;;;;;6.17;2.40;;;;;;;;;;5030979;28;20312;-51
2023/08/24 14:06:28;;;;;;;4.87;2.30;;;;;;;;;;5031182;28;20214;-52
2023/08/24 14:08:54;;;;;;;8.53;4.83;;;;;;;;;;5031261;28;20738;-52
2023/08/24 14:11:20;;;;;;;4.37;2.40;;;;;;;;;;5030993;28;20340;-51
2023/08/24 14:13:46;;;;;;;2.93;2.20;;;;;;;;;;5030982;28;20198;-52
2023/08/24 14:16:12;;;;;;;3.23;2.27;;;;;;;;;;5031204;28;20189;-52
2023/08/24 14:18:43;;;;;;;3.97;2.20;;;;;;;;;;5031161;28;20243;-52
2023/08/24 14:21:10;;;;;;;3.63;2.33;;;;;;;;;;5031008;28;20205;-52
2023/08/24 14:23:36;;;;;;;4.70;2.40;;;;;;;;;;5031044;28;20200;-51
2023/08/24 14:26:02;;;;;;;8.40;2.47;;;;;;;;;;5030949;28;20208;-52
2023/08/24 14:28:48;;;;;;;3.50;2.20;;;;;;;;;;5030852;28;20228;-52
2023/08/24 14:31:15;;;;;;;7.10;2.50;;;;;;;;;;5030845;28;20286;-51
2023/08/24 14:33:42;;;;;;;3.67;2.70;;;;;;;;;;5030745;28;20276;-52
2023/08/24 14:36:11;;;;;;;7.83;2.60;;;;;;;;;;5030801;28;20297;-52
2023/08/24 14:38:39;;;;;;;4.70;2.30;;;;;;;;;;5030644;28;20670;-52
2023/08/24 14:41:05;;;;;;;3.67;2.10;;;;;;;;;;5030756;28;20196;-52